createdAt,value
2019-03-29T00:02:27.202Z,63.10
2019-03-29T00:05:07.304Z,63.80
2019-03-29T00:07:47.308Z,63.70
2019-03-29T00:10:27.425Z,64.10
2019-03-29T00:13:07.429Z,63.90
2019-03-29T00:15:47.519Z,63.60
2019-03-29T00:21:09.625Z,62.60
2019-03-29T00:23:49.529Z,61.90
2019-03-29T00:26:29.592Z,62.40
2019-03-29T00:29:09.566Z,63.20
2019-03-29T00:31:49.746Z,63.10
2019-03-29T00:34:29.905Z,62.30
2019-03-29T00:37:09.680Z,62.40
2019-03-29T00:39:49.659Z,62.80
2019-03-29T00:42:29.823Z,62.10
2019-03-29T00:45:09.707Z,61.90
2019-03-29T00:47:49.739Z,62.60
2019-03-29T00:50:17.916Z,63.30
2019-03-29T00:52:58.017Z,64.00
2019-03-29T00:55:37.698Z,64.60
2019-03-29T00:58:17.742Z,64.90
2019-03-29T01:00:58.000Z,65.10
2019-03-29T01:03:38.025Z,64.70
2019-03-29T01:06:18.045Z,64.90
2019-03-29T01:08:59.621Z,66.10
2019-03-29T01:14:21.737Z,66.80
2019-03-29T01:17:01.806Z,67.20
2019-03-29T01:19:41.830Z,67.20
2019-03-29T01:22:22.126Z,67.40
2019-03-29T01:25:02.751Z,67.40
2019-03-29T01:27:42.395Z,67.70
2019-03-29T01:30:23.045Z,67.50
2019-03-29T01:33:03.640Z,67.50
2019-03-29T01:35:44.149Z,67.60
2019-03-29T01:38:24.593Z,67.40
2019-03-29T01:41:05.105Z,67.10
2019-03-29T01:43:45.259Z,67.40
2019-03-29T01:46:25.629Z,67.70
2019-03-29T01:49:07.526Z,68.50
2019-03-29T01:51:47.987Z,67.90
2019-03-29T01:56:58.959Z,68.40
2019-03-29T01:59:46.294Z,68.30
2019-03-29T02:02:33.611Z,68.10
2019-03-29T02:05:13.510Z,68.20
2019-03-29T02:07:53.586Z,67.30
2019-03-29T02:10:33.730Z,68.40
2019-03-29T02:13:14.028Z,68.30
2019-03-29T02:15:54.098Z,68.20
2019-03-29T02:18:34.275Z,68.50
2019-03-29T02:21:15.033Z,68.50
2019-03-29T02:23:56.938Z,68.10
2019-03-29T02:26:37.514Z,67.90
2019-03-29T02:29:17.633Z,68.10
2019-03-29T02:31:57.615Z,67.70
2019-03-29T02:34:37.550Z,67.50
2019-03-29T02:37:17.425Z,67.30
2019-03-29T02:39:58.003Z,68.10
2019-03-29T02:42:37.730Z,68.80
2019-03-29T02:45:17.947Z,68.90
2019-03-29T02:47:57.942Z,68.90
2019-03-29T02:50:38.131Z,69.60
2019-03-29T02:53:18.535Z,70.60
2019-03-29T02:55:58.352Z,71.40
2019-03-29T02:58:38.454Z,72.10
2019-03-29T03:01:18.494Z,72.30
2019-03-29T03:03:58.523Z,72.30
2019-03-29T03:06:38.648Z,72.30
2019-03-29T03:09:18.605Z,71.60
2019-03-29T03:11:59.171Z,72.50
2019-03-29T03:14:38.868Z,72.70
2019-03-29T03:17:18.790Z,72.00
2019-03-29T03:19:58.786Z,71.20
2019-03-29T03:22:38.879Z,70.90
2019-03-29T03:25:19.191Z,69.50
2019-03-29T03:27:59.242Z,69.80
2019-03-29T03:30:39.091Z,70.30
2019-03-29T03:33:19.466Z,70.50
2019-03-29T03:35:47.590Z,70.90
2019-03-29T03:38:34.899Z,70.40
2019-03-29T03:41:15.114Z,70.70
2019-03-29T03:43:55.478Z,71.10
2019-03-29T03:46:35.567Z,72.60
2019-03-29T03:49:15.671Z,72.50
2019-03-29T03:51:56.186Z,74.30
2019-03-29T03:54:36.184Z,75.00
2019-03-29T03:57:16.088Z,75.90
2019-03-29T03:59:56.092Z,76.40
2019-03-29T04:02:36.457Z,77.70
2019-03-29T04:05:16.538Z,77.80
2019-03-29T04:07:56.658Z,78.30
2019-03-29T04:10:24.825Z,78.10
2019-03-29T04:16:05.439Z,77.60
2019-03-29T04:18:45.619Z,77.40
2019-03-29T04:21:26.414Z,76.70
2019-03-29T04:24:06.342Z,77.00
2019-03-29T04:26:46.358Z,77.00
2019-03-29T04:29:26.765Z,76.70
2019-03-29T04:32:06.834Z,76.80
2019-03-29T04:34:49.309Z,77.20
2019-03-29T04:37:29.078Z,77.10
2019-03-29T04:40:09.513Z,77.60
2019-03-29T04:42:49.727Z,77.50
2019-03-29T04:45:29.462Z,77.70
2019-03-29T04:48:09.506Z,77.60
2019-03-29T04:50:49.669Z,77.40
2019-03-29T04:53:30.061Z,77.60
2019-03-29T04:56:09.886Z,77.20
2019-03-29T04:58:50.035Z,77.30
2019-03-29T05:01:29.910Z,77.10
2019-03-29T05:04:10.226Z,76.60
2019-03-29T05:06:50.332Z,76.90
2019-03-29T05:09:30.182Z,76.80
2019-03-29T05:12:10.170Z,76.80
2019-03-29T05:14:50.502Z,76.60
2019-03-29T05:17:30.546Z,76.90
2019-03-29T05:20:10.729Z,76.90
2019-03-29T05:22:50.757Z,76.40
2019-03-29T05:25:30.814Z,75.30
2019-03-29T05:28:11.050Z,74.60
2019-03-29T05:30:52.755Z,73.90
2019-03-29T05:33:32.849Z,74.50
2019-03-29T05:36:14.328Z,75.00
2019-03-29T05:38:54.769Z,74.60
2019-03-29T05:41:35.057Z,74.00
2019-03-29T05:44:14.967Z,73.70
2019-03-29T05:46:55.227Z,74.10
2019-03-29T05:49:23.500Z,73.90
2019-03-29T05:52:10.805Z,74.00
2019-03-29T05:54:50.828Z,74.20
2019-03-29T05:57:30.927Z,74.10
2019-03-29T06:00:14.083Z,74.50
2019-03-29T06:08:51.734Z,71.80
2019-03-29T06:11:31.794Z,71.80
2019-03-29T06:14:12.933Z,70.30
2019-03-29T06:16:53.344Z,68.90
2019-03-29T06:19:21.583Z,67.50
2019-03-29T06:22:08.883Z,65.70
2019-03-29T06:24:48.741Z,64.30
2019-03-29T06:27:28.946Z,60.80
2019-03-29T06:30:09.205Z,60.50
2019-03-29T06:32:49.614Z,60.00
2019-03-29T06:35:29.657Z,58.90
2019-03-29T06:38:09.761Z,58.80
2019-03-29T06:43:48.394Z,57.10
2019-03-29T06:46:28.528Z,57.10
2019-03-29T06:49:09.183Z,54.80
2019-03-29T06:51:48.940Z,54.90
2019-03-29T06:54:28.761Z,55.40
2019-03-29T06:57:08.799Z,54.80
2019-03-29T06:59:49.213Z,52.80
2019-03-29T07:02:29.213Z,52.20
2019-03-29T07:05:11.461Z,51.60
2019-03-29T07:07:51.401Z,51.40
2019-03-29T07:10:31.473Z,51.30
2019-03-29T07:13:11.444Z,49.90
2019-03-29T07:15:51.602Z,50.50
2019-03-29T07:18:33.810Z,51.00
2019-03-29T07:21:21.376Z,50.70
2019-03-29T07:23:56.141Z,49.50
2019-03-29T07:26:36.178Z,48.20
2019-03-29T07:29:16.332Z,47.80
2019-03-29T07:31:57.025Z,48.50
2019-03-29T07:34:37.735Z,47.80
2019-03-29T07:37:18.109Z,48.10
2019-03-29T07:39:58.168Z,47.10
2019-03-29T07:42:38.351Z,46.50
2019-03-29T07:45:18.531Z,45.70
2019-03-29T07:47:58.341Z,45.80
2019-03-29T07:50:38.528Z,45.60
2019-03-29T07:53:18.569Z,44.00
2019-03-29T07:55:47.211Z,42.80
2019-03-29T07:58:34.478Z,41.70
2019-03-29T08:01:14.389Z,41.30
2019-03-29T08:03:54.452Z,40.40
2019-03-29T08:06:34.589Z,40.10
2019-03-29T08:09:22.178Z,38.80
2019-03-29T08:11:57.016Z,37.20
2019-03-29T08:14:37.112Z,36.80
2019-03-29T08:17:17.322Z,36.20
2019-03-29T08:20:35.950Z,36.60
2019-03-29T08:22:39.500Z,36.00
2019-03-29T08:25:19.723Z,35.70
2019-03-29T08:27:59.749Z,34.10
2019-03-29T08:30:39.935Z,34.10
2019-03-29T08:33:20.020Z,34.00
2019-03-29T08:36:00.063Z,33.70
2019-03-29T08:38:40.110Z,32.90
2019-03-29T08:41:20.674Z,33.50
2019-03-29T08:44:00.740Z,32.00
2019-03-29T08:46:40.909Z,31.00
2019-03-29T08:49:21.588Z,30.90
2019-03-29T08:52:01.497Z,29.20
2019-03-29T08:54:42.617Z,29.10
2019-03-29T08:57:22.318Z,29.10
2019-03-29T09:03:01.558Z,29.60
2019-03-29T09:05:41.810Z,29.40
2019-03-29T09:08:21.803Z,29.50
2019-03-29T09:11:01.771Z,29.40
2019-03-29T09:13:30.003Z,29.10
2019-03-29T09:15:58.139Z,29.30
2019-03-29T09:18:45.454Z,28.90
2019-03-29T09:21:32.752Z,28.00
2019-03-29T09:24:21.823Z,28.60
2019-03-29T09:26:54.551Z,29.40
2019-03-29T09:29:24.446Z,29.10
2019-03-29T09:35:05.493Z,29.20
2019-03-29T09:37:45.712Z,29.50
2019-03-29T09:40:25.956Z,29.50
2019-03-29T09:43:08.033Z,30.30
2019-03-29T09:45:48.041Z,29.10
2019-03-29T09:48:28.243Z,29.60
2019-03-29T09:50:56.489Z,28.90
2019-03-29T09:53:43.782Z,27.80
2019-03-29T09:56:37.493Z,27.60
2019-03-29T09:59:05.586Z,28.10
2019-03-29T10:01:45.722Z,27.90
2019-03-29T10:04:25.674Z,28.00
2019-03-29T10:07:05.901Z,27.90
2019-03-29T10:09:46.021Z,27.90
2019-03-29T10:12:27.296Z,27.70
2019-03-29T10:15:07.721Z,28.80
2019-03-29T10:17:47.460Z,28.00
2019-03-29T10:20:27.357Z,27.60
2019-03-29T10:23:07.393Z,28.70
2019-03-29T10:25:47.594Z,28.40
2019-03-29T10:28:28.003Z,28.20
2019-03-29T10:31:08.710Z,29.00
2019-03-29T10:33:49.305Z,28.60
2019-03-29T10:36:29.861Z,28.50
2019-03-29T10:39:09.930Z,28.90
2019-03-29T10:41:50.125Z,28.60
2019-03-29T10:44:30.187Z,28.10
2019-03-29T10:47:10.529Z,28.40
2019-03-29T10:49:50.741Z,28.70
2019-03-29T10:52:31.941Z,28.60
2019-03-29T10:58:24.882Z,28.20
2019-03-29T11:01:05.158Z,27.50
2019-03-29T11:03:45.483Z,27.40
2019-03-29T11:06:25.609Z,27.20
2019-03-29T11:09:05.822Z,26.00
2019-03-29T11:11:45.751Z,26.10
2019-03-29T11:14:26.298Z,25.80
2019-03-29T11:16:54.491Z,26.10
2019-03-29T11:19:41.892Z,26.20
2019-03-29T11:22:29.517Z,26.50
2019-03-29T11:25:13.092Z,27.30
2019-03-29T11:27:53.269Z,27.10
2019-03-29T11:30:42.011Z,26.30
2019-03-29T11:33:14.963Z,25.40
2019-03-29T11:35:55.138Z,26.20
2019-03-29T11:38:35.270Z,26.20
2019-03-29T11:41:15.455Z,26.50
2019-03-29T11:43:55.561Z,25.80
2019-03-29T11:46:35.739Z,25.60
2019-03-29T11:49:16.005Z,25.10
2019-03-29T11:51:56.223Z,25.10
2019-03-29T11:54:36.513Z,24.50
2019-03-29T11:57:16.585Z,24.50
2019-03-29T11:59:56.870Z,24.50
2019-03-29T12:02:36.966Z,23.00
2019-03-29T12:05:16.958Z,22.70
2019-03-29T12:07:57.402Z,22.70
2019-03-29T12:10:37.682Z,22.00
2019-03-29T12:13:17.326Z,22.20
2019-03-29T12:15:57.373Z,22.00
2019-03-29T12:18:37.621Z,21.90
2019-03-29T12:21:17.644Z,22.10
2019-03-29T12:23:57.585Z,22.30
2019-03-29T12:26:37.549Z,22.00
2019-03-29T12:29:17.926Z,22.50
2019-03-29T12:31:57.902Z,22.20
2019-03-29T12:34:38.526Z,21.70
2019-03-29T12:37:18.216Z,21.90
2019-03-29T12:39:58.416Z,21.50
2019-03-29T12:42:38.413Z,21.60
2019-03-29T12:45:18.710Z,20.70
2019-03-29T12:47:58.729Z,20.90
2019-03-29T12:50:26.997Z,20.90
2019-03-29T12:53:14.929Z,20.60
2019-03-29T12:56:02.230Z,20.80
2019-03-29T12:58:42.657Z,19.90
2019-03-29T13:01:22.396Z,20.00
2019-03-29T13:04:02.634Z,19.30
2019-03-29T13:06:42.594Z,19.40
2019-03-29T13:09:22.860Z,19.40
2019-03-29T13:12:02.837Z,19.50
2019-03-29T13:14:42.946Z,18.60
2019-03-29T13:17:23.302Z,18.80
2019-03-29T13:20:06.344Z,18.40
2019-03-29T13:22:46.398Z,17.90
2019-03-29T13:25:26.810Z,17.90
2019-03-29T13:28:06.700Z,18.30
2019-03-29T13:30:47.295Z,19.20
2019-03-29T13:33:26.994Z,19.90
2019-03-29T13:36:06.966Z,19.80
2019-03-29T13:38:49.903Z,19.30
2019-03-29T13:41:30.234Z,20.30
2019-03-29T13:44:23.145Z,20.00
2019-03-29T13:46:52.505Z,20.10
2019-03-29T13:49:32.629Z,20.10
2019-03-29T13:52:14.324Z,19.10
2019-03-29T13:54:55.070Z,19.60
2019-03-29T13:57:34.625Z,19.40
2019-03-29T14:00:14.691Z,19.30
2019-03-29T14:02:55.659Z,18.80
2019-03-29T14:05:35.807Z,18.90
2019-03-29T14:08:16.066Z,18.20
2019-03-29T14:10:56.078Z,18.60
2019-03-29T14:13:36.286Z,18.50
2019-03-29T14:16:16.391Z,18.00
2019-03-29T14:18:56.466Z,18.00
2019-03-29T14:21:36.226Z,16.70
2019-03-29T14:24:16.154Z,17.30
2019-03-29T14:26:56.253Z,16.90
2019-03-29T14:29:36.605Z,17.40
2019-03-29T14:32:16.694Z,17.20
2019-03-29T14:34:56.939Z,16.70
2019-03-29T14:37:27.755Z,16.90
2019-03-29T14:40:15.067Z,16.90
2019-03-29T14:42:55.985Z,16.80
2019-03-29T14:45:36.318Z,16.30
2019-03-29T14:48:17.486Z,16.00
2019-03-29T14:50:58.737Z,16.30
2019-03-29T14:53:38.476Z,16.30
2019-03-29T14:56:18.496Z,16.30
2019-03-29T14:58:58.858Z,15.80
2019-03-29T15:01:40.877Z,16.00
2019-03-29T15:04:09.085Z,16.70
2019-03-29T15:06:56.538Z,16.60
2019-03-29T15:09:36.209Z,16.40
2019-03-29T15:12:16.357Z,16.60
2019-03-29T15:15:05.865Z,17.00
2019-03-29T15:17:38.655Z,16.90
2019-03-29T15:20:18.799Z,17.10
2019-03-29T15:22:58.690Z,17.70
2019-03-29T15:25:40.646Z,17.50
2019-03-29T15:28:20.726Z,18.00
2019-03-29T15:31:00.745Z,17.70
2019-03-29T15:33:40.663Z,17.70
2019-03-29T15:36:20.931Z,18.50
2019-03-29T15:39:00.763Z,18.30
2019-03-29T15:41:40.780Z,18.80
2019-03-29T15:44:11.530Z,19.00
2019-03-29T15:46:58.862Z,19.50
2019-03-29T15:49:55.729Z,19.70
2019-03-29T15:52:16.129Z,19.90
2019-03-29T15:55:04.071Z,20.30
2019-03-29T15:57:51.415Z,20.80
2019-03-29T16:00:31.466Z,21.70
2019-03-29T16:03:11.814Z,22.30
2019-03-29T16:05:52.029Z,23.20
2019-03-29T16:08:32.194Z,23.40
2019-03-29T16:11:17.089Z,24.10
2019-03-29T16:13:55.086Z,25.70
2019-03-29T16:16:36.176Z,25.30
2019-03-29T16:19:16.693Z,26.10
2019-03-29T16:21:56.471Z,26.90
2019-03-29T16:24:36.450Z,26.90
2019-03-29T16:27:16.534Z,27.40
2019-03-29T16:29:56.637Z,27.10
2019-03-29T16:32:36.889Z,27.30
2019-03-29T16:35:17.010Z,27.10
2019-03-29T16:37:57.821Z,27.30
2019-03-29T16:40:38.238Z,27.40
2019-03-29T16:43:18.519Z,27.10
2019-03-29T16:45:58.644Z,27.50
2019-03-29T16:48:38.687Z,27.90
2019-03-29T16:51:18.797Z,27.90
2019-03-29T16:54:00.548Z,28.00
2019-03-29T16:56:40.278Z,27.90
2019-03-29T16:59:10.599Z,27.90
2019-03-29T17:01:58.289Z,28.30
2019-03-29T17:04:37.913Z,27.40
2019-03-29T17:07:18.054Z,27.10
2019-03-29T17:09:58.290Z,27.20
2019-03-29T17:12:38.022Z,27.00
2019-03-29T17:15:18.062Z,27.10
2019-03-29T17:18:00.805Z,26.80
2019-03-29T17:20:40.529Z,27.00
2019-03-29T17:23:20.994Z,27.40
2019-03-29T17:26:00.638Z,27.50
2019-03-29T17:28:28.833Z,27.80
2019-03-29T17:31:16.449Z,27.60
2019-03-29T17:33:58.673Z,27.70
2019-03-29T17:36:38.925Z,27.90
2019-03-29T17:39:21.993Z,27.70
2019-03-29T17:42:01.147Z,28.60
2019-03-29T17:44:41.300Z,28.80
2019-03-29T17:47:21.336Z,28.80
2019-03-29T17:50:01.902Z,28.90
2019-03-29T17:52:30.148Z,29.30
2019-03-29T17:55:19.938Z,29.90
2019-03-29T17:58:07.248Z,30.60
2019-03-29T18:00:47.168Z,30.70
2019-03-29T18:03:27.363Z,32.00
2019-03-29T18:06:07.539Z,33.00
2019-03-29T18:08:47.472Z,34.10
2019-03-29T18:11:27.453Z,34.90
2019-03-29T18:14:10.290Z,35.90
2019-03-29T18:16:51.647Z,36.50
2019-03-29T18:19:33.579Z,37.20
2019-03-29T18:25:12.169Z,37.90
2019-03-29T18:27:52.242Z,39.20
2019-03-29T18:30:32.582Z,39.00
2019-03-29T18:33:13.484Z,39.80
2019-03-29T18:35:53.682Z,39.60
2019-03-29T18:38:33.782Z,40.30
2019-03-29T18:41:14.058Z,40.60
2019-03-29T18:43:53.740Z,41.10
2019-03-29T18:46:44.031Z,41.60
2019-03-29T18:49:15.721Z,41.80
2019-03-29T18:51:56.058Z,42.10
2019-03-29T18:54:36.088Z,42.80
2019-03-29T18:57:16.485Z,43.30
2019-03-29T18:59:56.745Z,44.80
2019-03-29T19:02:36.881Z,44.80
2019-03-29T19:05:17.182Z,45.50
2019-03-29T19:07:57.524Z,46.00
2019-03-29T19:10:42.638Z,46.30
2019-03-29T19:13:22.753Z,46.80
2019-03-29T19:16:04.506Z,46.90
2019-03-29T19:18:45.999Z,47.30
2019-03-29T19:21:26.998Z,47.80
2019-03-29T19:24:08.983Z,47.60
2019-03-29T19:26:52.010Z,47.60
2019-03-29T19:29:33.893Z,47.80
2019-03-29T19:32:14.912Z,48.30
2019-03-29T19:34:55.334Z,48.40
2019-03-29T19:37:37.770Z,48.40
2019-03-29T19:40:17.521Z,48.90
2019-03-29T19:42:57.706Z,48.90
2019-03-29T19:45:37.877Z,48.60
2019-03-29T19:48:18.270Z,49.10
2019-03-29T19:51:10.413Z,49.40
2019-03-29T19:53:50.719Z,49.40
2019-03-29T19:56:31.024Z,49.60
2019-03-29T19:59:11.064Z,49.80
2019-03-29T20:01:52.746Z,50.30
2019-03-29T20:04:33.425Z,50.50
2019-03-29T20:07:13.589Z,50.10
2019-03-29T20:12:54.787Z,50.10
2019-03-29T20:15:34.646Z,50.00
2019-03-29T20:18:14.561Z,50.30
2019-03-29T20:20:54.766Z,50.20
2019-03-29T20:23:34.910Z,49.80
2019-03-29T20:26:16.766Z,49.50
2019-03-29T20:28:58.748Z,49.00
2019-03-29T20:31:39.088Z,49.10
2019-03-29T20:34:21.398Z,49.20
2019-03-29T20:37:01.299Z,49.30
2019-03-29T20:39:42.172Z,49.60
2019-03-29T20:42:24.930Z,49.90
2019-03-29T20:45:04.461Z,49.90
2019-03-29T20:47:45.147Z,49.80
2019-03-29T20:50:24.791Z,50.00
2019-03-29T20:53:04.799Z,50.40
2019-03-29T20:55:44.866Z,50.70
2019-03-29T20:58:24.970Z,51.10
2019-03-29T21:01:04.917Z,51.60
2019-03-29T21:03:44.885Z,51.80
2019-03-29T21:06:24.951Z,51.80
2019-03-29T21:09:04.829Z,52.20
2019-03-29T21:11:44.978Z,52.60
2019-03-29T21:14:25.000Z,53.10
2019-03-29T21:17:05.309Z,53.50
2019-03-29T21:20:01.739Z,53.80
2019-03-29T21:22:41.515Z,53.80
2019-03-29T21:25:21.638Z,53.80
2019-03-29T21:28:01.702Z,54.10
2019-03-29T21:30:30.045Z,54.00
2019-03-29T21:33:17.359Z,53.80
2019-03-29T21:35:57.540Z,53.80
2019-03-29T21:38:36.145Z,53.70
2019-03-29T21:41:16.524Z,53.30
2019-03-29T21:43:56.538Z,52.70
2019-03-29T21:46:25.772Z,52.50
2019-03-29T21:49:13.546Z,52.60
2019-03-29T21:51:53.794Z,52.40
2019-03-29T21:54:33.746Z,52.40
2019-03-29T21:57:13.933Z,52.70
2019-03-29T21:59:53.916Z,53.10
2019-03-29T22:02:33.834Z,53.40
2019-03-29T22:05:14.126Z,53.50
2019-03-29T22:07:55.323Z,53.10
2019-03-29T22:10:37.706Z,53.40
2019-03-29T22:13:17.486Z,53.70
2019-03-29T22:15:58.863Z,53.30
2019-03-29T22:18:38.626Z,53.20
2019-03-29T22:21:18.851Z,53.10
2019-03-29T22:23:59.159Z,52.90
2019-03-29T22:26:39.385Z,53.10
2019-03-29T22:29:19.499Z,53.00
2019-03-29T22:31:59.865Z,52.70
2019-03-29T22:34:40.955Z,52.30
2019-03-29T22:37:09.177Z,52.60
2019-03-29T22:39:56.742Z,52.30
2019-03-29T22:42:44.033Z,52.20
2019-03-29T22:45:23.708Z,52.00
2019-03-29T22:48:03.829Z,51.50
2019-03-29T22:50:44.183Z,51.40
2019-03-29T22:53:24.231Z,51.30
2019-03-29T22:56:04.458Z,51.50
2019-03-29T22:58:44.646Z,51.00
2019-03-29T23:01:25.909Z,50.80
2019-03-29T23:04:05.830Z,51.10
2019-03-29T23:06:34.349Z,51.40
2019-03-29T23:09:21.625Z,51.30
2019-03-29T23:12:01.321Z,51.30
2019-03-29T23:14:41.326Z,51.70
2019-03-29T23:17:21.181Z,51.90
2019-03-29T23:20:02.310Z,52.20
2019-03-29T23:22:42.700Z,52.10
2019-03-29T23:25:22.953Z,52.70
2019-03-29T23:28:02.670Z,52.40
2019-03-29T23:30:42.972Z,52.80
2019-03-29T23:33:23.062Z,52.50
2019-03-29T23:36:03.054Z,52.50
2019-03-29T23:38:31.505Z,52.50
2019-03-29T23:41:18.815Z,53.40
2019-03-29T23:44:06.124Z,53.90
2019-03-29T23:46:46.240Z,54.40
2019-03-29T23:49:26.518Z,55.20
2019-03-29T23:52:06.639Z,55.90
2019-03-29T23:54:47.280Z,56.30
2019-03-29T23:57:27.617Z,56.50
